createdAt,value
2022-11-15T00:04:22.598Z,10.1
2022-11-15T00:18:50.958Z,10
2022-11-15T00:33:17.225Z,10.3
2022-11-15T00:47:44.648Z,10.4
2022-11-15T01:02:12.124Z,10.3
2022-11-15T01:16:40.197Z,10.4
2022-11-15T01:31:07.384Z,10.6
2022-11-15T01:45:35.615Z,10.9
2022-11-15T02:00:03.166Z,10.9
2022-11-15T02:14:31.179Z,11.1
2022-11-15T02:28:59.820Z,11.2
2022-11-15T02:43:27.137Z,11.4
2022-11-15T02:57:54.755Z,11.5
2022-11-15T03:12:20.687Z,11.5
2022-11-15T03:26:48.309Z,11.7
2022-11-15T03:41:16.447Z,11.7
2022-11-15T03:55:45.281Z,11.7
2022-11-15T04:10:11.506Z,11.6
2022-11-15T04:24:40.656Z,11.6
2022-11-15T04:39:08.204Z,11.6
2022-11-15T04:53:36.050Z,11.6
2022-11-15T05:08:01.628Z,11.6
2022-11-15T05:22:31.385Z,11.7
2022-11-15T05:36:58.222Z,11.7
2022-11-15T05:51:26.125Z,11.7
2022-11-15T06:05:53.914Z,11.7
2022-11-15T06:20:20.179Z,11.8
2022-11-15T06:34:49.834Z,11.7
2022-11-15T06:49:17.223Z,11.5
2022-11-15T07:03:42.459Z,11.4
2022-11-15T07:18:10.228Z,11.6
2022-11-15T07:32:37.810Z,11.6
2022-11-15T07:47:07.862Z,11.7
2022-11-15T08:01:35.381Z,11.7
2022-11-15T08:16:02.655Z,11.9
2022-11-15T08:30:30.618Z,11.8
2022-11-15T08:44:58.610Z,11.8
2022-11-15T08:59:26.979Z,12.3
2022-11-15T09:13:55.685Z,12.5
2022-11-15T09:28:24.090Z,12.3
2022-11-15T09:42:53.010Z,12.6
2022-11-15T09:57:21.596Z,12.7
2022-11-15T10:11:52.188Z,12.8
2022-11-15T10:26:18.607Z,12.9
2022-11-15T10:40:46.259Z,13
2022-11-15T10:55:14.065Z,13.1
2022-11-15T11:09:42.122Z,13.2
2022-11-15T11:24:10.878Z,13.3
2022-11-15T11:38:39.230Z,13.6
2022-11-15T11:53:07.305Z,13.6
2022-11-15T12:07:35.547Z,13.8
2022-11-15T12:22:02.920Z,13.7
2022-11-15T12:36:28.986Z,13.5
2022-11-15T12:50:57.830Z,13.9
2022-11-15T13:05:23.089Z,13.6
2022-11-15T13:19:51.403Z,13.5
2022-11-15T13:34:44.514Z,13.7
2022-11-15T13:49:02.777Z,13.5
2022-11-15T14:03:29.823Z,13.4
2022-11-15T14:17:55.269Z,13.4
2022-11-15T14:32:22.712Z,13.4
2022-11-15T14:46:51.340Z,13.3
2022-11-15T15:01:19.027Z,13.3
2022-11-15T15:15:45.909Z,13.2
2022-11-15T15:30:14.817Z,13.1
2022-11-15T15:44:41.037Z,12.9
2022-11-15T15:59:08.739Z,12.8
2022-11-15T16:13:36.971Z,12.8
2022-11-15T16:28:04.839Z,12.8
2022-11-15T16:42:32.820Z,12.8
2022-11-15T16:57:00.223Z,12.8
2022-11-15T17:11:27.990Z,12.8
2022-11-15T17:25:55.700Z,12.7
2022-11-15T17:40:43.983Z,12.8
2022-11-15T17:55:11.603Z,12.7
2022-11-15T18:09:39.632Z,12.7
2022-11-15T18:24:07.363Z,12.7
2022-11-15T18:38:33.371Z,12.8
2022-11-15T18:53:01.056Z,12.6
2022-11-15T19:07:29.279Z,12.5
2022-11-15T19:21:58.824Z,12.4
2022-11-15T19:36:25.576Z,12.3
2022-11-15T19:50:53.196Z,12.1
2022-11-15T20:05:19.445Z,12
2022-11-15T20:19:47.528Z,11.9
2022-11-15T20:34:16.561Z,11.8
2022-11-15T20:48:44.106Z,11.8
2022-11-15T21:03:11.760Z,11.7
2022-11-15T21:17:39.730Z,11.7
2022-11-15T21:32:07.977Z,11.7
2022-11-15T21:46:32.945Z,11.6
2022-11-15T22:01:01.665Z,11.7
2022-11-15T22:15:29.498Z,11.7
2022-11-15T22:29:57.252Z,11.6
2022-11-15T22:44:25.072Z,11.6
2022-11-15T22:58:53.424Z,11.5
2022-11-15T23:13:19.227Z,11.5
2022-11-15T23:27:47.399Z,11.5
2022-11-15T23:42:14.621Z,11.4
2022-11-15T23:56:42.629Z,11.4
